Time;durP1;ratioP1;P1;durP2;ratioP2;P2;SDS_P1;SDS_P2;PMS_P1;PMS_P2;Temp;Humidity;BMP_temperature;BMP_pressure;BME280_temperature;BME280_humidity;BME280_pressure;Samples;Min_cycle;Max_cycle;Signal;HPM_P1;HPM_P2
2023/05/08 00:13:29;;;;;;;6.80;1.10;;;;;;;11.05;68.08;100769.38;31203189;28;20068;-82
2023/05/08 00:28:31;;;;;;;3.70;1.30;;;;;;;11.24;67.80;100771.47;31215515;28;20045;-82
2023/05/08 00:43:34;;;;;;;5.20;1.20;;;;;;;10.99;68.03;100775.66;31211538;28;20057;-81
2023/05/08 00:58:36;;;;;;;1.70;1.13;;;;;;;11.01;68.05;100776.78;31204521;28;20041;-81
2023/05/08 01:13:51;;;;;;;3.97;1.40;;;;;;;11.05;69.35;100774.81;31227318;28;20055;-82
2023/05/08 01:29:18;;;;;;;1.67;1.40;;;;;;;10.88;68.87;100759.44;31212272;28;20050;-82
2023/05/08 01:44:23;;;;;;;3.60;1.20;;;;;;;10.75;69.95;100758.44;31211349;28;20042;-83
2023/05/08 01:59:27;;;;;;;1.23;1.00;;;;;;;10.67;71.00;100765.88;31228475;28;21002;-83
2023/05/08 02:14:31;;;;;;;2.53;1.20;;;;;;;10.54;71.29;100773.75;31231881;28;20042;-84
2023/05/08 02:29:35;;;;;;;2.20;1.20;;;;;;;10.49;72.43;100779.59;31220399;28;20084;-83
2023/05/08 02:44:37;;;;;;;5.10;1.30;;;;;;;10.50;71.90;100794.72;31218808;28;20102;-81
2023/05/08 02:59:50;;;;;;;7.40;1.17;;;;;;;10.62;73.69;100809.00;31204409;28;20076;-83
2023/05/08 03:15:02;;;;;;;1.83;1.30;;;;;;;10.59;73.71;100811.34;31211814;28;20084;-81
2023/05/08 03:30:06;;;;;;;3.87;1.73;;;;;;;10.80;73.20;100804.16;31216839;28;20112;-81
2023/05/08 03:45:09;;;;;;;2.63;1.40;;;;;;;10.97;71.08;100808.66;31236798;28;20046;-81
2023/05/08 04:00:42;;;;;;;5.83;1.73;;;;;;;11.05;69.97;100812.84;31221742;28;20136;-83
2023/05/08 04:16:06;;;;;;;4.63;2.50;;;;;;;11.22;70.03;100803.72;31188042;28;20042;-81
2023/05/08 04:31:09;;;;;;;11.73;4.13;;;;;;;11.49;68.02;100806.50;31225597;28;20053;-81
2023/05/08 04:46:11;;;;;;;15.77;5.37;;;;;;;11.53;67.25;100795.59;31225905;28;20050;-82
2023/05/08 05:01:13;;;;;;;31.57;8.37;;;;;;;11.89;66.80;100802.13;31187068;28;20057;-82
2023/05/08 05:16:15;;;;;;;18.20;6.57;;;;;;;12.13;65.93;100802.19;31196655;28;20093;-82
2023/05/08 05:31:17;;;;;;;7.40;3.30;;;;;;;12.18;65.86;100790.84;31230533;28;20068;-83
2023/05/08 05:46:19;;;;;;;23.23;7.90;;;;;;;12.72;65.17;100772.44;31274709;28;20107;-83
2023/05/08 06:01:23;;;;;;;19.50;6.60;;;;;;;13.69;61.76;100765.88;31221143;28;20131;-86
2023/05/08 06:16:25;;;;;;;21.60;8.70;;;;;;;14.68;58.51;100777.94;31240315;28;20110;-80
2023/05/08 06:31:27;;;;;;;30.60;9.53;;;;;;;14.97;57.83;100793.59;31262889;28;20507;-80
2023/05/08 06:46:29;;;;;;;18.90;5.47;;;;;;;15.44;58.01;100814.97;31240299;28;20487;-80
2023/05/08 07:01:31;;;;;;;17.20;5.47;;;;;;;15.97;57.49;100825.16;31230696;28;20050;-80
2023/05/08 07:16:33;;;;;;;17.10;6.13;;;;;;;16.87;55.20;100836.81;31219746;28;20057;-80
2023/05/08 07:31:39;;;;;;;19.58;5.57;;;;;;;17.86;51.73;100830.50;31230843;28;20060;-79
2023/05/08 07:46:41;;;;;;;15.55;4.93;;;;;;;18.99;51.85;100841.66;31226878;28;20052;-80
2023/05/08 08:01:46;;;;;;;10.57;4.28;;;;;;;19.43;48.68;100842.09;31211626;28;20068;-80
2023/05/08 08:16:49;;;;;;;8.10;2.70;;;;;;;19.59;48.54;100826.50;31213555;28;20049;-80
2023/05/08 08:31:51;;;;;;;10.43;2.95;;;;;;;19.75;46.76;100850.94;31213330;28;20065;-79
2023/05/08 08:46:56;;;;;;;8.68;3.30;;;;;;;20.37;45.43;100833.84;31257201;28;20062;-81
2023/05/08 09:02:06;;;;;;;7.57;3.05;;;;;;;20.83;44.25;100822.50;31239912;28;20045;-90
2023/05/08 09:17:08;;;;;;;7.75;2.83;;;;;;;21.10;43.71;100814.00;31276465;28;20493;-78
2023/05/08 09:32:17;;;;;;;2.83;1.70;;;;;;;20.91;40.87;100798.84;31253903;28;20100;-78
2023/05/08 09:47:21;;;;;;;6.13;1.52;;;;;;;20.46;41.91;100808.22;31262491;28;20522;-76
2023/05/08 10:02:23;;;;;;;3.40;1.20;;;;;;;20.07;40.34;100810.88;31243929;28;20061;-77
2023/05/08 10:17:43;;;;;;;2.67;1.70;;;;;;;20.94;38.80;100811.72;31227989;28;20053;-77
2023/05/08 10:32:49;;;;;;;3.30;1.55;;;;;;;20.84;37.45;100826.78;31214957;28;20058;-88
2023/05/08 10:48:10;;;;;;;5.65;2.10;;;;;;;19.98;38.06;100808.91;31239753;28;20562;-84
2023/05/08 11:03:12;;;;;;;2.33;1.55;;;;;;;19.61;39.40;100815.75;31317329;28;20127;-79
2023/05/08 11:18:31;;;;;;;4.50;1.30;;;;;;;18.87;40.48;100839.06;31218483;28;20057;-76
2023/05/08 11:33:50;;;;;;;2.33;1.17;;;;;;;18.37;41.27;100824.59;31172430;28;20479;-80
2023/05/08 11:48:59;;;;;;;3.92;1.50;;;;;;;18.59;41.85;100814.28;31216108;28;20560;-77
2023/05/08 12:04:06;;;;;;;8.77;1.42;;;;;;;18.35;41.91;100813.28;31179114;28;20045;-78
2023/05/08 12:19:10;;;;;;;5.00;1.58;;;;;;;17.90;42.42;100819.38;31173210;28;20124;-79
2023/05/08 12:34:12;;;;;;;5.57;1.60;;;;;;;17.15;43.37;100811.13;31165229;28;20065;-77
2023/05/08 12:49:25;;;;;;;7.67;1.50;;;;;;;17.23;46.85;100828.13;31178724;28;20053;-80
2023/05/08 13:04:28;;;;;;;5.83;1.40;;;;;;;16.91;46.43;100830.00;31212704;28;20057;-80
2023/05/08 13:19:30;;;;;;;3.70;1.40;;;;;;;16.73;48.27;100845.50;31169178;28;20053;-80
2023/05/08 13:34:33;;;;;;;4.80;1.43;;;;;;;16.50;49.75;100869.31;31247061;28;20076;-78
2023/05/08 13:49:38;;;;;;;4.90;1.70;;;;;;;16.49;50.05;100859.56;31197033;28;20057;-78
2023/05/08 14:04:40;;;;;;;6.73;2.10;;;;;;;16.46;51.23;100862.41;31247203;28;20207;-79
2023/05/08 14:19:42;;;;;;;3.77;2.43;;;;;;;16.48;51.80;100868.22;31250495;28;20082;-80
2023/05/08 14:34:44;;;;;;;4.73;1.80;;;;;;;16.33;54.95;100881.59;31229836;28;20057;-79
2023/05/08 14:49:47;;;;;;;5.37;1.97;;;;;;;15.78;57.64;100866.44;31493214;22;20049;-88
2023/05/08 15:04:49;;;;;;;2.77;1.90;;;;;;;15.28;60.46;100863.09;31367813;28;20230;-86
2023/05/08 15:19:51;;;;;;;3.90;1.90;;;;;;;15.15;61.65;100881.41;31389535;28;20056;-83
2023/05/08 15:34:54;;;;;;;5.00;1.80;;;;;;;14.93;65.09;100910.47;31361799;28;20080;-80
2023/05/08 15:49:57;;;;;;;5.37;2.43;;;;;;;14.50;72.70;100903.31;31347621;28;20080;-86
2023/05/08 16:04:59;;;;;;;6.17;3.03;;;;;;;14.54;75.09;100909.47;31367350;28;20049;-79
2023/05/08 16:20:02;;;;;;;5.33;2.37;;;;;;;14.43;74.26;100908.91;31388178;28;20133;-79
2023/05/08 16:35:28;;;;;;;11.63;4.37;;;;;;;14.31;77.51;100931.41;31375271;28;20053;-86
2023/05/08 16:50:30;;;;;;;4.77;2.50;;;;;;;14.10;77.04;100934.59;31362237;28;20069;-86
2023/05/08 17:05:46;;;;;;;7.83;3.50;;;;;;;13.89;82.15;100946.72;31393450;28;20049;-87
2023/05/08 17:20:49;;;;;;;;;;;;;;;13.96;92.49;100977.38;31368944;28;20060;-86
2023/05/08 17:35:51;;;;;;;10.40;5.13;;;;;;;13.95;87.50;100978.56;31408897;28;20030;-87
2023/05/08 17:50:53;;;;;;;40.17;13.63;;;;;;;14.08;88.99;100981.44;31361778;28;20419;-87
2023/05/08 18:05:57;;;;;;;6.37;3.53;;;;;;;14.12;89.14;101005.94;31413423;28;20056;-86
2023/05/08 18:21:08;;;;;;;11.23;5.23;;;;;;;13.98;100.00;101007.75;31417149;28;20075;-88
2023/05/08 18:36:11;;;;;;;20.60;9.03;;;;;;;14.05;99.22;100997.88;31420440;28;20494;-87
2023/05/08 18:51:13;;;;;;;14.73;5.73;;;;;;;13.94;100.00;101004.31;31394469;28;20079;-87
2023/05/08 19:06:15;;;;;;;11.10;4.00;;;;;;;13.90;100.00;101020.00;31394900;28;20053;-88
2023/05/08 19:21:18;;;;;;;14.67;4.93;;;;;;;13.86;100.00;101000.19;31398747;28;20067;-88
2023/05/08 19:36:20;;;;;;;12.17;4.20;;;;;;;13.78;100.00;101011.66;31356998;28;20049;-84
2023/05/08 19:51:23;;;;;;;6.97;3.97;;;;;;;13.69;100.00;100998.56;31369216;28;20056;-84
2023/05/08 20:06:32;;;;;;;4.37;2.07;;;;;;;13.58;80.96;100982.38;31367018;28;20049;-84
2023/05/08 20:21:35;;;;;;;3.60;1.73;;;;;;;13.62;67.68;100976.88;31390742;28;20044;-86
2023/05/08 20:36:50;;;;;;;4.87;1.50;;;;;;;13.57;58.67;100974.63;31348040;28;20048;-87
2023/05/08 20:51:53;;;;;;;1.60;1.10;;;;;;;13.58;56.94;100965.25;31378394;28;20145;-86
2023/05/08 21:06:55;;;;;;;1.63;1.00;;;;;;;13.47;57.59;100970.09;31352829;28;20056;-87
2023/05/08 21:21:57;;;;;;;14.13;7.40;;;;;;;13.46;55.91;100968.59;31354572;28;20526;-86
2023/05/08 21:36:59;;;;;;;2.37;1.17;;;;;;;13.42;55.64;100962.44;31360477;28;20061;-85
2023/05/08 21:52:02;;;;;;;6.23;1.60;;;;;;;13.43;57.10;100963.97;31375568;28;20114;-86
2023/05/08 22:07:04;;;;;;;1.63;1.13;;;;;;;13.24;57.85;100951.81;31377651;28;20041;-85
2023/05/08 22:22:06;;;;;;;2.67;1.30;;;;;;;13.05;57.84;100949.75;31399417;28;20060;-85
2023/05/08 22:37:08;;;;;;;4.57;2.27;;;;;;;12.97;58.85;100938.22;31377786;28;20041;-85
2023/05/08 22:52:10;;;;;;;5.70;1.40;;;;;;;12.84;60.50;100934.53;31369763;28;20072;-85
2023/05/08 23:07:12;;;;;;;8.47;1.30;;;;;;;12.78;60.49;100928.00;31370840;28;20049;-86
2023/05/08 23:22:14;;;;;;;4.93;1.80;;;;;;;12.59;59.52;100913.88;31374210;28;20041;-86
2023/05/08 23:37:16;;;;;;;3.73;1.43;;;;;;;12.62;60.08;100904.91;31367890;28;20055;-85
2023/05/08 23:52:19;;;;;;;3.17;1.40;;;;;;;12.55;62.07;100907.72;31367116;28;20132;-85
